Time,TemperatureF,DewpointF,PressureIn,WindDirection,WindDirectionDegrees,WindSpeedMPH,WindSpeedGustMPH,Humidity,HourlyPrecipIn,Conditions,Clouds,dailyrainin,SoftwareType,DateUTC
2013-05-26 00:01:00,67.0,62.0,30.08,ESE,116,0.5,2.3,84,0.00,RA,,0.00,WeatherDisplay:10.37,2013-05-26 05:01:00,
2013-05-26 00:06:00,66.9,61.9,30.08,SSE,150,0.0,0.0,84,0.00,RA,,0.00,WeatherDisplay:10.37,2013-05-26 05:06:00,
2013-05-26 00:11:00,66.7,61.7,30.08,SSW,193,0.0,0.0,84,0.00,CLR,,0.00,WeatherDisplay:10.37,2013-05-26 05:11:00,
2013-05-26 00:16:00,66.7,61.7,30.08,SSE,155,0.0,0.0,84,0.00,CLR,,0.00,WeatherDisplay:10.37,2013-05-26 05:16:00,
2013-05-26 00:21:00,66.7,61.7,30.08,ESE,119,1.0,2.3,84,0.00,CLR,,0.00,WeatherDisplay:10.37,2013-05-26 05:21:00,
2013-05-26 00:26:00,66.7,61.7,30.08,SSW,212,0.0,1.1,84,0.00,CLR,,0.00,WeatherDisplay:10.37,2013-05-26 05:26:00,
2013-05-26 00:31:00,66.7,61.7,30.09,SE,142,0.5,1.1,84,0.00,CLR,,0.00,WeatherDisplay:10.37,2013-05-26 05:31:00,
2013-05-26 00:36:00,66.7,61.7,30.08,South,190,0.2,2.0,84,0.00,CLR,,0.00,WeatherDisplay:10.37,2013-05-26 05:36:00,
2013-05-26 00:41:00,66.8,61.8,30.09,SSE,157,0.9,2.3,84,0.00,CLR,,0.00,WeatherDisplay:10.37,2013-05-26 05:41:00,
2013-05-26 00:46:00,66.7,61.7,30.09,SSE,150,0.4,2.3,84,0.00,CLR,,0.00,WeatherDisplay:10.37,2013-05-26 05:46:00,
2013-05-26 00:51:00,66.7,61.7,30.09,WSW,239,0.0,0.0,84,0.00,CLR,,0.00,WeatherDisplay:10.37,2013-05-26 05:51:00,
2013-05-26 00:56:00,66.6,61.6,30.09,SE,138,0.1,1.1,84,0.00,CLR,,0.00,WeatherDisplay:10.37,2013-05-26 05:56:00,
2013-05-26 01:01:00,66.4,61.4,30.09,SE,130,0.0,0.0,84,0.00,CLR,,0.00,WeatherDisplay:10.37,2013-05-26 06:01:00,
2013-05-26 01:06:00,66.1,61.5,30.09,SE,130,0.0,0.0,85,0.00,CLR,,0.00,WeatherDisplay:10.37,2013-05-26 06:06:00,
2013-05-26 01:11:00,65.9,61.3,30.09,SE,146,0.0,0.0,85,0.00,,,0.00,WeatherDisplay:10.37,2013-05-26 06:11:00,
2013-05-26 01:16:00,65.8,61.5,30.09,SE,146,0.0,0.0,86,0.00,,,0.00,WeatherDisplay:10.37,2013-05-26 06:16:00,
2013-05-26 01:21:00,65.6,61.3,30.08,East,94,0.0,0.0,86,0.00,,,0.00,WeatherDisplay:10.37,2013-05-26 06:21:00,
2013-05-26 01:26:00,65.5,61.2,30.09,East,93,0.0,0.0,86,0.00,,,0.00,WeatherDisplay:10.37,2013-05-26 06:26:00,
2013-05-26 01:31:00,65.2,60.9,30.08,East,93,0.0,2.3,86,0.00,,,0.00,WeatherDisplay:10.37,2013-05-26 06:31:00,
2013-05-26 01:36:00,65.0,61.0,30.09,East,92,0.0,0.0,87,0.00,,,0.00,WeatherDisplay:10.37,2013-05-26 06:36:00,
2013-05-26 01:41:00,64.9,60.9,30.08,East,92,0.0,0.0,87,0.00,,,0.00,WeatherDisplay:10.37,2013-05-26 06:41:00,
2013-05-26 01:46:00,64.7,60.7,30.08,SE,145,0.0,0.0,87,0.00,,,0.00,WeatherDisplay:10.37,2013-05-26 06:46:00,
2013-05-26 01:51:00,64.6,61.0,30.08,SSE,155,0.0,0.0,88,0.00,,,0.00,WeatherDisplay:10.37,2013-05-26 06:51:00,
2013-05-26 01:56:00,64.4,60.8,30.08,SSE,155,0.0,0.0,88,0.00,,,0.00,WeatherDisplay:10.37,2013-05-26 06:56:00,
2013-05-26 02:01:00,64.3,60.7,30.08,SSE,155,0.0,0.0,88,0.00,,,0.00,WeatherDisplay:10.37,2013-05-26 07:01:00,
2013-05-26 02:06:00,64.2,60.6,30.08,SSE,155,0.0,0.0,88,0.00,,,0.00,WeatherDisplay:10.37,2013-05-26 07:06:00,
2013-05-26 02:11:00,64.2,60.9,30.08,ESE,117,0.0,0.0,89,0.00,,,0.00,WeatherDisplay:10.37,2013-05-26 07:11:00,
2013-05-26 02:16:00,64.1,60.8,30.08,ESE,117,0.0,0.0,89,0.00,,,0.00,WeatherDisplay:10.37,2013-05-26 07:16:00,
2013-05-26 02:21:00,64.1,60.8,30.08,ESE,117,0.0,0.0,89,0.00,,,0.00,WeatherDisplay:10.37,2013-05-26 07:21:00,
2013-05-26 02:26:00,64.0,60.7,30.08,ESE,120,0.0,0.0,89,0.00,,,0.00,WeatherDisplay:10.37,2013-05-26 07:26:00,
2013-05-26 02:31:00,64.0,60.7,30.08,ESE,120,0.0,0.0,89,0.00,,,0.00,WeatherDisplay:10.37,2013-05-26 07:31:00,
2013-05-26 02:36:00,63.9,60.6,30.08,ESE,120,0.0,0.0,89,0.00,,,0.00,WeatherDisplay:10.37,2013-05-26 07:36:00,
2013-05-26 02:41:00,63.9,60.6,30.07,East,99,0.0,0.0,89,0.00,,,0.00,WeatherDisplay:10.37,2013-05-26 07:41:00,
2013-05-26 02:47:00,63.8,60.5,30.07,East,98,0.0,0.0,89,0.00,,,0.00,WeatherDisplay:10.37,2013-05-26 07:47:00,
2013-05-26 02:52:00,63.7,60.4,30.07,East,98,0.0,0.0,89,0.00,,,0.00,WeatherDisplay:10.37,2013-05-26 07:52:00,
2013-05-26 02:57:00,63.6,60.3,30.06,East,85,0.0,0.0,89,0.00,,,0.00,WeatherDisplay:10.37,2013-05-26 07:57:00,
2013-05-26 03:02:00,63.4,60.1,30.06,ESE,115,0.0,0.0,89,0.00,,,0.00,WeatherDisplay:10.37,2013-05-26 08:02:00,
2013-05-26 03:07:00,63.3,60.0,30.06,ESE,111,0.0,0.0,89,0.00,,,0.00,WeatherDisplay:10.37,2013-05-26 08:07:00,
2013-05-26 03:12:00,63.2,60.2,30.06,ESE,112,0.0,0.0,90,0.00,,,0.00,WeatherDisplay:10.37,2013-05-26 08:12:00,
2013-05-26 03:17:00,63.2,60.2,30.06,ESE,111,0.0,0.0,90,0.00,,,0.00,WeatherDisplay:10.37,2013-05-26 08:17:00,
2013-05-26 03:22:00,63.0,60.0,30.06,ESE,117,0.0,0.0,90,0.00,,,0.00,WeatherDisplay:10.37,2013-05-26 08:22:00,
2013-05-26 03:27:00,63.0,60.0,30.06,SE,142,0.0,0.0,90,0.00,,,0.00,WeatherDisplay:10.37,2013-05-26 08:27:00,
2013-05-26 03:32:00,62.9,59.9,30.06,East,100,0.2,1.1,90,0.00,,,0.00,WeatherDisplay:10.37,2013-05-26 08:32:00,
2013-05-26 03:37:00,62.8,59.8,30.06,ESE,106,0.5,1.1,90,0.00,,,0.00,WeatherDisplay:10.37,2013-05-26 08:37:00,
2013-05-26 03:42:00,62.8,59.8,30.06,East,82,0.0,0.0,90,0.00,,,0.00,WeatherDisplay:10.37,2013-05-26 08:42:00,
2013-05-26 03:47:00,62.7,59.7,30.06,East,85,0.0,0.0,90,0.00,,,0.00,WeatherDisplay:10.37,2013-05-26 08:47:00,
2013-05-26 03:52:00,62.6,59.6,30.06,East,84,0.0,0.0,90,0.00,,,0.00,WeatherDisplay:10.37,2013-05-26 08:52:00,
2013-05-26 03:57:00,62.4,59.4,30.06,East,85,0.0,0.0,90,0.00,,,0.00,WeatherDisplay:10.37,2013-05-26 08:57:00,
2013-05-26 04:02:00,62.2,59.5,30.06,East,84,0.0,0.0,91,0.00,,,0.00,WeatherDisplay:10.37,2013-05-26 09:02:00,
2013-05-26 04:07:00,62.1,59.4,30.06,SSE,151,0.0,1.1,91,0.00,,,0.00,WeatherDisplay:10.37,2013-05-26 09:07:00,
2013-05-26 04:12:00,62.1,59.4,30.05,SW,229,0.0,0.0,91,0.00,,,0.00,WeatherDisplay:10.37,2013-05-26 09:12:00,
2013-05-26 04:17:00,62.1,59.4,30.05,SSE,149,0.0,0.0,91,0.00,,,0.00,WeatherDisplay:10.37,2013-05-26 09:17:00,
2013-05-26 04:22:00,62.0,59.3,30.05,SSW,198,0.0,0.0,91,0.00,,,0.00,WeatherDisplay:10.37,2013-05-26 09:22:00,
2013-05-26 04:27:00,62.0,59.3,30.05,ESE,122,0.3,2.3,91,0.00,,,0.00,WeatherDisplay:10.37,2013-05-26 09:27:00,
2013-05-26 04:32:00,62.0,59.3,30.05,SE,131,0.3,2.3,91,0.00,,,0.00,WeatherDisplay:10.37,2013-05-26 09:32:00,
2013-05-26 04:37:00,61.9,59.2,30.05,ENE,78,0.2,1.1,91,0.00,,,0.00,WeatherDisplay:10.37,2013-05-26 09:37:00,
2013-05-26 04:42:00,61.8,59.1,30.05,SSE,155,0.0,0.0,91,0.00,,,0.00,WeatherDisplay:10.37,2013-05-26 09:42:00,
2013-05-26 04:47:00,61.7,59.4,30.05,SSE,160,0.0,1.1,92,0.00,,,0.00,WeatherDisplay:10.37,2013-05-26 09:47:00,
2013-05-26 04:52:00,61.6,59.3,30.05,SSE,149,0.0,0.0,92,0.00,,,0.00,WeatherDisplay:10.37,2013-05-26 09:52:00,
2013-05-26 04:57:00,61.6,59.3,30.05,SE,125,0.2,1.1,92,0.00,,,0.00,WeatherDisplay:10.37,2013-05-26 09:57:00,
2013-05-26 05:02:00,61.5,59.2,30.04,SE,131,0.0,0.0,92,0.00,,,0.00,WeatherDisplay:10.37,2013-05-26 10:02:00,
2013-05-26 05:07:00,61.5,59.2,30.04,SE,127,0.4,2.3,92,0.00,,,0.00,WeatherDisplay:10.37,2013-05-26 10:07:00,
2013-05-26 05:12:00,61.5,59.2,30.04,ESE,106,0.2,1.1,92,0.00,,,0.00,WeatherDisplay:10.37,2013-05-26 10:12:00,
2013-05-26 05:17:00,61.5,59.2,30.05,SE,146,0.0,0.0,92,0.00,,,0.00,WeatherDisplay:10.37,2013-05-26 10:17:00,
2013-05-26 05:22:00,61.4,58.7,30.05,SE,138,0.0,0.0,91,0.00,,,0.00,WeatherDisplay:10.37,2013-05-26 10:22:00,
2013-05-26 05:27:00,61.5,58.8,30.05,ESE,114,0.1,1.0,91,0.00,CLR,,0.00,WeatherDisplay:10.37,2013-05-26 10:27:00,
2013-05-26 05:32:00,61.5,58.8,30.06,ESE,114,0.0,0.0,91,0.00,CLR,,0.00,WeatherDisplay:10.37,2013-05-26 10:32:00,
2013-05-26 05:37:00,61.3,58.7,30.06,ESE,114,0.0,0.0,91,0.00,CLR,,0.00,WeatherDisplay:10.37,2013-05-26 10:37:00,
2013-05-26 05:42:00,61.2,58.6,30.06,SSE,152,0.0,0.0,91,0.00,CLR,,0.00,WeatherDisplay:10.37,2013-05-26 10:42:00,
2013-05-26 05:47:00,61.1,58.5,30.06,SSE,163,0.1,1.1,91,0.00,CLR,,0.00,WeatherDisplay:10.37,2013-05-26 10:47:00,
2013-05-26 05:52:00,61.1,58.8,30.06,ESE,106,0.0,0.0,92,0.00,CLR,,0.00,WeatherDisplay:10.37,2013-05-26 10:52:00,
2013-05-26 05:57:00,61.1,58.8,30.06,ESE,108,0.0,0.0,92,0.00,CLR,,0.00,WeatherDisplay:10.37,2013-05-26 10:57:00,
2013-05-26 06:02:00,61.2,58.6,30.06,SE,127,0.0,0.0,91,0.00,CLR,,0.00,WeatherDisplay:10.37,2013-05-26 11:02:00,
2013-05-26 06:07:00,61.1,58.5,30.05,ESE,122,0.0,0.0,91,0.00,CLR,,0.00,WeatherDisplay:10.37,2013-05-26 11:07:00,
2013-05-26 06:12:00,61.1,58.5,30.05,ESE,121,0.4,1.1,91,0.00,CLR,,0.00,WeatherDisplay:10.37,2013-05-26 11:12:00,
2013-05-26 06:17:00,61.2,58.6,30.06,South,172,0.2,1.1,91,0.00,CLR,,0.00,WeatherDisplay:10.37,2013-05-26 11:17:00,
2013-05-26 06:22:00,61.4,58.4,30.06,ESE,114,1.0,2.3,90,0.00,CLR,,0.00,WeatherDisplay:10.37,2013-05-26 11:22:00,
2013-05-26 06:27:00,61.6,58.6,30.06,SSW,205,1.0,2.3,90,0.00,CLR,,0.00,WeatherDisplay:10.37,2013-05-26 11:27:00,
2013-05-26 06:32:00,61.7,58.7,30.06,South,191,0.2,2.0,90,0.00,CLR,,0.00,WeatherDisplay:10.37,2013-05-26 11:32:00,
2013-05-26 06:37:00,61.8,58.8,30.06,SSE,151,0.3,2.3,90,0.00,CLR,,0.00,WeatherDisplay:10.37,2013-05-26 11:37:00,
2013-05-26 06:42:00,61.8,58.5,30.06,SE,133,0.0,0.0,89,0.00,CLR,,0.00,WeatherDisplay:10.37,2013-05-26 11:42:00,
2013-05-26 06:47:00,61.8,58.5,30.06,South,172,0.0,3.5,89,0.00,CLR,,0.00,WeatherDisplay:10.37,2013-05-26 11:47:00,
2013-05-26 06:52:00,62.0,59.0,30.06,SSE,150,0.0,0.0,90,0.00,CLR,,0.00,WeatherDisplay:10.37,2013-05-26 11:52:00,
2013-05-26 06:57:00,62.7,59.4,30.07,SE,143,0.0,0.0,89,0.00,CLR,,0.00,WeatherDisplay:10.37,2013-05-26 11:57:00,
2013-05-26 07:02:00,63.3,59.7,30.06,SSE,148,0.0,1.1,88,0.00,CLR,,0.00,WeatherDisplay:10.37,2013-05-26 12:02:00,
2013-05-26 07:07:00,63.8,59.5,30.07,SE,124,1.0,3.5,86,0.00,CLR,,0.00,WeatherDisplay:10.37,2013-05-26 12:07:00,
2013-05-26 07:12:00,64.0,59.7,30.07,SSE,148,0.7,1.1,86,0.00,CLR,,0.00,WeatherDisplay:10.37,2013-05-26 12:12:00,
2013-05-26 07:17:00,64.2,59.6,30.07,SE,146,2.1,5.8,85,0.00,CLR,,0.00,WeatherDisplay:10.37,2013-05-26 12:17:00,
2013-05-26 07:22:00,64.2,59.9,30.07,ESE,104,1.7,3.0,86,0.00,CLR,,0.00,WeatherDisplay:10.37,2013-05-26 12:22:00,
2013-05-26 07:27:00,64.3,60.0,30.07,ESE,120,0.4,1.1,86,0.00,CLR,,0.00,WeatherDisplay:10.37,2013-05-26 12:27:00,
2013-05-26 07:32:00,64.6,60.3,30.07,East,82,0.0,0.0,86,0.00,CLR,,0.00,WeatherDisplay:10.37,2013-05-26 12:32:00,
2013-05-26 07:37:00,65.1,60.1,30.06,SSE,158,0.7,1.1,84,0.00,CLR,,0.00,WeatherDisplay:10.37,2013-05-26 12:37:00,
2013-05-26 07:42:00,65.2,59.9,30.06,NNW,334,0.5,2.3,83,0.00,CLR,,0.00,WeatherDisplay:10.37,2013-05-26 12:42:00,
2013-05-26 07:47:00,65.5,60.2,30.06,ENE,76,1.9,1.9,83,0.00,CLR,,0.00,WeatherDisplay:10.37,2013-05-26 12:47:00,
2013-05-26 07:52:00,65.8,60.5,30.06,East,93,0.3,2.0,83,0.00,CLR,,0.00,WeatherDisplay:10.37,2013-05-26 12:52:00,
2013-05-26 07:57:00,66.2,60.5,30.06,SW,214,1.2,3.5,82,0.00,CLR,,0.00,WeatherDisplay:10.37,2013-05-26 12:57:00,
2013-05-26 08:02:00,66.5,60.8,30.06,SSE,160,0.8,4.6,82,0.00,CLR,,0.00,WeatherDisplay:10.37,2013-05-26 13:02:00,
2013-05-26 08:07:00,66.7,61.0,30.06,ESE,103,1.2,4.6,82,0.00,CLR,,0.00,WeatherDisplay:10.37,2013-05-26 13:07:00,
2013-05-26 08:12:00,66.8,60.8,30.06,SSE,157,1.2,3.5,81,0.00,CLR,,0.00,WeatherDisplay:10.37,2013-05-26 13:12:00,
2013-05-26 08:17:00,67.1,61.4,30.06,ESE,116,0.0,2.3,82,0.00,CLR,,0.00,WeatherDisplay:10.37,2013-05-26 13:17:00,
2013-05-26 08:23:00,67.8,61.8,30.06,East,91,0.0,1.1,81,0.00,CLR,,0.00,WeatherDisplay:10.37,2013-05-26 13:23:00,
2013-05-26 08:28:00,68.3,61.9,30.06,ESE,117,0.6,0.0,80,0.00,CLR,,0.00,WeatherDisplay:10.37,2013-05-26 13:28:00,
2013-05-26 08:33:00,68.6,61.8,30.06,ESE,113,1.6,4.6,79,0.00,CLR,,0.00,WeatherDisplay:10.37,2013-05-26 13:33:00,
2013-05-26 08:38:00,69.0,62.2,30.06,East,82,0.3,3.5,79,0.00,CLR,,0.00,WeatherDisplay:10.37,2013-05-26 13:38:00,
2013-05-26 08:43:00,70.0,62.8,30.07,South,172,0.2,1.1,78,0.00,CLR,,0.00,WeatherDisplay:10.37,2013-05-26 13:43:00,
2013-05-26 08:48:00,70.5,62.9,30.07,East,93,0.7,3.5,77,0.00,CLR,,0.00,WeatherDisplay:10.37,2013-05-26 13:48:00,
2013-05-26 08:53:00,70.6,62.7,30.07,ESE,120,3.1,4.6,76,0.00,CLR,,0.00,WeatherDisplay:10.37,2013-05-26 13:53:00,
2013-05-26 08:58:00,70.6,63.0,30.07,East,92,0.5,3.5,77,0.00,CLR,,0.00,WeatherDisplay:10.37,2013-05-26 13:58:00,
2013-05-26 09:03:00,70.7,62.8,30.07,ENE,66,1.5,3.5,76,0.00,CLR,,0.00,WeatherDisplay:10.37,2013-05-26 14:03:00,
2013-05-26 09:08:00,70.9,63.0,30.07,South,186,1.8,3.5,76,0.00,CLR,,0.00,WeatherDisplay:10.37,2013-05-26 14:08:00,
2013-05-26 09:13:00,71.0,63.1,30.07,South,183,2.1,3.5,76,0.00,CLR,,0.00,WeatherDisplay:10.37,2013-05-26 14:13:00,
2013-05-26 09:18:00,71.2,63.2,30.07,East,93,1.7,3.5,76,0.00,CLR,,0.00,WeatherDisplay:10.37,2013-05-26 14:18:00,
2013-05-26 09:23:00,72.0,64.0,30.07,SW,224,1.5,3.5,76,0.00,CLR,,0.00,WeatherDisplay:10.37,2013-05-26 14:23:00,
2013-05-26 09:28:00,72.4,64.0,30.07,SE,133,0.5,3.5,75,0.00,CLR,,0.00,WeatherDisplay:10.37,2013-05-26 14:28:00,
2013-05-26 09:33:00,73.0,64.6,30.07,ESE,102,1.0,3.5,75,0.00,CLR,,0.00,WeatherDisplay:10.37,2013-05-26 14:33:00,
2013-05-26 09:38:00,73.7,64.1,30.07,ESE,102,2.2,3.5,72,0.00,CLR,,0.00,WeatherDisplay:10.37,2013-05-26 14:38:00,
2013-05-26 09:43:00,73.8,65.0,30.06,SSE,158,0.8,3.5,74,0.00,CLR,,0.00,WeatherDisplay:10.37,2013-05-26 14:43:00,
2013-05-26 09:48:00,73.9,65.1,30.07,West,264,1.5,3.5,74,0.00,CLR,,0.00,WeatherDisplay:10.37,2013-05-26 14:48:00,
2013-05-26 09:53:00,74.1,64.9,30.06,SW,224,1.0,2.0,73,0.00,CLR,,0.00,WeatherDisplay:10.37,2013-05-26 14:53:00,
2013-05-26 09:58:00,74.2,64.6,30.07,SSE,162,2.4,4.6,72,0.00,CLR,,0.00,WeatherDisplay:10.37,2013-05-26 14:58:00,
2013-05-26 10:03:00,74.4,64.8,30.07,East,88,0.7,3.5,72,0.00,CLR,,0.00,WeatherDisplay:10.37,2013-05-26 15:03:00,
2013-05-26 10:08:00,74.5,64.9,30.07,South,183,3.5,6.0,72,0.00,CLR,,0.00,WeatherDisplay:10.37,2013-05-26 15:08:00,
2013-05-26 10:13:00,74.6,65.0,30.07,WSW,250,2.8,6.9,72,0.00,CLR,,0.00,WeatherDisplay:10.37,2013-05-26 15:13:00,
2013-05-26 10:18:00,75.0,65.4,30.07,South,170,0.7,2.3,72,0.00,CLR,,0.00,WeatherDisplay:10.37,2013-05-26 15:18:00,
2013-05-26 10:23:00,75.9,66.2,30.07,NE,40,2.2,3.5,72,0.00,CLR,,0.00,WeatherDisplay:10.37,2013-05-26 15:23:00,
2013-05-26 10:28:00,75.6,65.5,30.07,SSE,150,1.5,3.5,71,0.00,CLR,,0.00,WeatherDisplay:10.37,2013-05-26 15:28:00,
2013-05-26 10:33:00,76.0,65.9,30.07,SE,124,2.4,6.9,71,0.00,CLR,,0.00,WeatherDisplay:10.37,2013-05-26 15:33:00,
2013-05-26 10:38:00,76.1,66.0,30.07,SSE,150,3.2,6.9,71,0.00,CLR,,0.00,WeatherDisplay:10.37,2013-05-26 15:38:00,
2013-05-26 10:43:00,76.2,65.7,30.07,South,170,3.7,8.1,70,0.00,CLR,,0.00,WeatherDisplay:10.37,2013-05-26 15:43:00,
2013-05-26 10:48:00,76.2,66.1,30.07,SSE,152,2.3,4.6,71,0.00,CLR,,0.00,WeatherDisplay:10.37,2013-05-26 15:48:00,
2013-05-26 10:53:00,76.1,66.8,30.07,SW,215,2.1,4.0,73,0.00,CLR,,0.00,WeatherDisplay:10.37,2013-05-26 15:53:00,
2013-05-26 10:58:00,76.5,66.0,30.06,South,187,3.0,8.1,70,0.00,CLR,,0.00,WeatherDisplay:10.37,2013-05-26 15:58:00,
2013-05-26 11:03:00,76.9,66.4,30.06,SE,124,2.0,6.9,70,0.00,CLR,,0.00,WeatherDisplay:10.37,2013-05-26 16:03:00,
2013-05-26 11:08:00,77.5,66.5,30.06,SW,236,1.8,3.5,69,0.00,CLR,,0.00,WeatherDisplay:10.37,2013-05-26 16:08:00,
2013-05-26 11:13:00,78.2,67.2,30.06,SSW,198,1.1,3.5,69,0.00,CLR,,0.00,WeatherDisplay:10.37,2013-05-26 16:13:00,
2013-05-26 11:18:00,78.2,67.2,30.06,ESE,120,2.3,3.5,69,0.00,CLR,,0.00,WeatherDisplay:10.37,2013-05-26 16:18:00,
2013-05-26 11:23:00,78.8,68.2,30.06,SE,135,4.1,8.1,70,0.00,CLR,,0.00,WeatherDisplay:10.37,2013-05-26 16:23:00,
2013-05-26 11:28:00,79.3,67.4,30.06,SW,225,2.6,4.0,67,0.00,CLR,,0.00,WeatherDisplay:10.37,2013-05-26 16:28:00,
2013-05-26 11:33:00,78.7,67.2,30.06,WSW,238,4.8,10.4,68,0.00,CLR,,0.00,WeatherDisplay:10.37,2013-05-26 16:33:00,
2013-05-26 11:38:00,78.9,68.3,30.06,ESE,102,2.4,3.5,70,0.00,CLR,,0.00,WeatherDisplay:10.37,2013-05-26 16:38:00,
2013-05-26 11:43:00,79.9,68.0,30.05,South,174,3.9,5.8,67,0.00,CLR,,0.00,WeatherDisplay:10.37,2013-05-26 16:43:00,
2013-05-26 11:48:00,80.0,68.1,30.06,SSE,165,5.0,11.5,67,0.00,CLR,,0.00,WeatherDisplay:10.37,2013-05-26 16:48:00,
2013-05-26 11:53:00,80.0,68.1,30.06,South,173,3.7,8.1,67,0.00,CLR,,0.00,WeatherDisplay:10.37,2013-05-26 16:53:00,
2013-05-26 11:58:00,79.4,68.8,30.05,SW,217,1.1,9.2,70,0.00,CLR,,0.00,WeatherDisplay:10.37,2013-05-26 16:58:00,
2013-05-26 12:03:00,80.5,68.1,30.05,WSW,238,2.7,4.6,66,0.00,CLR,,0.00,WeatherDisplay:10.37,2013-05-26 17:03:00,
2013-05-26 12:08:00,80.9,68.5,30.05,South,170,3.6,6.9,66,0.00,CLR,,0.00,WeatherDisplay:10.37,2013-05-26 17:08:00,
2013-05-26 12:13:00,81.4,68.9,30.05,West,267,2.2,3.5,66,0.00,CLR,,0.00,WeatherDisplay:10.37,2013-05-26 17:13:00,
2013-05-26 12:18:00,81.3,68.9,30.05,South,187,4.5,10.4,66,0.00,CLR,,0.00,WeatherDisplay:10.37,2013-05-26 17:18:00,
2013-05-26 12:23:00,81.2,68.3,30.04,WSW,257,4.5,10.4,65,0.00,CLR,,0.00,WeatherDisplay:10.37,2013-05-26 17:23:00,
2013-05-26 12:28:00,81.1,67.8,30.04,SE,141,5.6,12.7,64,0.00,CLR,,0.00,WeatherDisplay:10.37,2013-05-26 17:28:00,
2013-05-26 12:33:00,81.3,68.0,30.04,SW,228,7.3,11.5,64,0.00,CLR,,0.00,WeatherDisplay:10.37,2013-05-26 17:33:00,
2013-05-26 12:38:00,80.4,67.6,30.04,SW,221,8.9,15.0,65,0.00,CLR,,0.00,WeatherDisplay:10.37,2013-05-26 17:38:00,
2013-05-26 12:43:00,80.7,67.8,30.04,South,186,7.4,11.5,65,0.00,CLR,,0.00,WeatherDisplay:10.37,2013-05-26 17:43:00,
2013-05-26 12:48:00,81.6,67.3,30.04,SW,228,4.9,11.5,62,0.00,CLR,,0.00,WeatherDisplay:10.37,2013-05-26 17:48:00,
2013-05-26 12:53:00,81.5,67.7,30.04,SW,232,7.8,11.5,63,0.00,CLR,,0.00,WeatherDisplay:10.37,2013-05-26 17:53:00,
2013-05-26 12:58:00,80.9,65.7,30.03,WSW,257,11.2,19.6,60,0.00,CLR,,0.00,WeatherDisplay:10.37,2013-05-26 17:58:00,
2013-05-26 13:03:00,81.2,66.5,30.03,SW,235,5.7,9.2,61,0.00,CLR,,0.00,WeatherDisplay:10.37,2013-05-26 18:03:00,
2013-05-26 13:08:00,80.6,66.4,30.04,SSW,208,7.2,11.0,62,0.00,CLR,,0.00,WeatherDisplay:10.37,2013-05-26 18:08:00,
2013-05-26 13:13:00,81.1,67.8,30.03,SSW,193,4.4,6.9,64,0.00,CLR,,0.00,WeatherDisplay:10.37,2013-05-26 18:13:00,
2013-05-26 13:18:00,82.0,68.2,30.03,SSW,193,2.3,3.5,63,0.00,CLR,,0.00,WeatherDisplay:10.37,2013-05-26 18:18:00,
2013-05-26 13:23:00,82.0,67.7,30.03,SSW,204,6.0,9.0,62,0.00,CLR,,0.00,WeatherDisplay:10.37,2013-05-26 18:23:00,
2013-05-26 13:28:00,81.7,66.5,30.03,SSW,192,9.4,10.4,60,0.00,CLR,,0.00,WeatherDisplay:10.37,2013-05-26 18:28:00,
2013-05-26 13:33:00,81.7,66.5,30.03,SSW,204,5.1,11.5,60,0.00,CLR,,0.00,WeatherDisplay:10.37,2013-05-26 18:33:00,
2013-05-26 13:38:00,82.1,66.8,30.02,SSW,194,5.3,13.8,60,0.00,CLR,,0.00,WeatherDisplay:10.37,2013-05-26 18:38:00,
2013-05-26 13:43:00,81.4,65.7,30.02,SSE,168,6.9,9.2,59,0.00,CLR,,0.00,WeatherDisplay:10.37,2013-05-26 18:43:00,
2013-05-26 13:48:00,81.5,65.3,30.02,SW,226,9.3,16.1,58,0.00,CLR,,0.00,WeatherDisplay:10.37,2013-05-26 18:48:00,
2013-05-26 13:53:00,81.5,65.3,30.01,SSE,148,9.3,14.0,58,0.00,CLR,,0.00,WeatherDisplay:10.37,2013-05-26 18:53:00,
2013-05-26 13:58:00,82.1,65.4,30.01,WSW,239,5.2,12.7,57,0.00,CLR,,0.00,WeatherDisplay:10.37,2013-05-26 18:58:00,
2013-05-26 14:03:00,82.3,66.0,30.01,SSW,198,3.5,8.1,58,0.00,CLR,,0.00,WeatherDisplay:10.37,2013-05-26 19:03:00,
2013-05-26 14:09:00,82.7,65.9,30.01,SW,214,6.1,11.5,57,0.00,CLR,,0.00,WeatherDisplay:10.37,2013-05-26 19:09:00,
2013-05-26 14:14:00,82.5,65.2,30.00,ESE,109,7.5,16.1,56,0.00,CLR,,0.00,WeatherDisplay:10.37,2013-05-26 19:14:00,
2013-05-26 14:19:00,83.2,65.9,30.00,WSW,249,6.4,11.5,56,0.00,CLR,,0.00,WeatherDisplay:10.37,2013-05-26 19:19:00,
2013-05-26 14:24:00,82.8,65.5,30.00,SE,145,3.0,11.5,56,0.00,CLR,,0.00,WeatherDisplay:10.37,2013-05-26 19:24:00,
2013-05-26 14:29:00,82.7,64.9,30.00,South,177,9.2,15.0,55,0.00,CLR,,0.00,WeatherDisplay:10.37,2013-05-26 19:29:00,
2013-05-26 14:34:00,82.9,65.6,29.99,SW,236,5.4,10.4,56,0.00,CLR,,0.00,WeatherDisplay:10.37,2013-05-26 19:34:00,
2013-05-26 14:39:00,82.7,65.4,29.99,SSW,194,5.5,16.1,56,0.00,CLR,,0.00,WeatherDisplay:10.37,2013-05-26 19:39:00,
2013-05-26 14:44:00,83.2,65.9,29.99,SW,236,8.5,10.0,56,0.00,CLR,,0.00,WeatherDisplay:10.37,2013-05-26 19:44:00,
2013-05-26 14:49:00,83.4,65.5,29.99,SSW,193,6.9,11.5,55,0.00,CLR,,0.00,WeatherDisplay:10.37,2013-05-26 19:49:00,
2013-05-26 14:54:00,83.9,66.5,29.99,SW,232,8.2,11.5,56,0.00,CLR,,0.00,WeatherDisplay:10.37,2013-05-26 19:54:00,
2013-05-26 14:59:00,83.5,66.2,29.99,SSW,212,5.1,9.2,56,0.00,CLR,,0.00,WeatherDisplay:10.37,2013-05-26 19:59:00,
2013-05-26 15:04:00,83.9,66.5,29.99,South,187,3.4,6.9,56,0.00,CLR,,0.00,WeatherDisplay:10.37,2013-05-26 20:04:00,
2013-05-26 15:09:00,84.1,65.7,29.99,SW,218,7.8,11.5,54,0.00,,,0.00,WeatherDisplay:10.37,2013-05-26 20:09:00,
2013-05-26 15:14:00,84.1,66.2,29.98,SSW,211,9.5,16.1,55,0.00,,,0.00,WeatherDisplay:10.37,2013-05-26 20:14:00,
2013-05-26 15:19:00,83.6,65.7,29.98,SW,217,7.4,11.5,55,0.00,,,0.00,WeatherDisplay:10.37,2013-05-26 20:19:00,
2013-05-26 15:24:00,83.4,66.1,29.98,SE,135,5.2,8.1,56,0.00,,,0.00,WeatherDisplay:10.37,2013-05-26 20:24:00,
2013-05-26 15:29:00,83.8,65.4,29.97,SSW,205,7.4,11.5,54,0.00,,,0.00,WeatherDisplay:10.37,2013-05-26 20:29:00,
2013-05-26 15:34:00,84.1,66.2,29.97,SW,226,9.0,13.8,55,0.00,,,0.00,WeatherDisplay:10.37,2013-05-26 20:34:00,
2013-05-26 15:39:00,84.2,65.8,29.97,WSW,246,6.8,11.5,54,0.00,,,0.00,WeatherDisplay:10.37,2013-05-26 20:39:00,
2013-05-26 15:44:00,84.3,66.9,29.97,SSW,211,7.8,12.7,56,0.00,,,0.00,WeatherDisplay:10.37,2013-05-26 20:44:00,
2013-05-26 15:49:00,84.2,65.8,29.96,SW,221,6.7,12.7,54,0.00,,,0.00,WeatherDisplay:10.37,2013-05-26 20:49:00,
2013-05-26 15:54:00,83.6,65.2,29.96,SW,228,9.8,12.7,54,0.00,,,0.00,WeatherDisplay:10.37,2013-05-26 20:54:00,
2013-05-26 15:59:00,84.1,65.7,29.97,SW,232,7.8,12.7,54,0.00,,,0.00,WeatherDisplay:10.37,2013-05-26 20:59:00,
2013-05-26 16:04:00,84.0,65.0,29.96,WNW,287,6.8,13.8,53,0.00,,,0.00,WeatherDisplay:10.37,2013-05-26 21:04:00,
2013-05-26 16:09:00,83.9,65.5,29.96,South,180,5.9,11.5,54,0.00,,,0.00,WeatherDisplay:10.37,2013-05-26 21:09:00,
2013-05-26 16:14:00,84.6,66.1,29.96,SW,224,3.6,5.8,54,0.00,,,0.00,WeatherDisplay:10.37,2013-05-26 21:14:00,
2013-05-26 16:19:00,84.1,64.6,29.96,West,263,7.8,16.1,52,0.00,,,0.00,WeatherDisplay:10.37,2013-05-26 21:19:00,
2013-05-26 16:24:00,84.0,65.0,29.96,SW,229,5.8,12.7,53,0.00,,,0.00,WeatherDisplay:10.37,2013-05-26 21:24:00,
2013-05-26 16:29:00,84.0,65.6,29.95,West,262,6.7,11.5,54,0.00,,,0.00,WeatherDisplay:10.37,2013-05-26 21:29:00,
2013-05-26 16:34:00,83.9,65.5,29.95,SW,236,4.5,8.1,54,0.00,,,0.00,WeatherDisplay:10.37,2013-05-26 21:34:00,
2013-05-26 16:39:00,83.9,64.9,29.95,SW,221,7.3,11.5,53,0.00,,,0.00,WeatherDisplay:10.37,2013-05-26 21:39:00,
2013-05-26 16:44:00,84.4,65.4,29.95,West,278,6.4,9.2,53,0.00,,,0.00,WeatherDisplay:10.37,2013-05-26 21:44:00,
2013-05-26 16:49:00,83.9,64.4,29.95,South,179,4.4,9.2,52,0.00,,,0.00,WeatherDisplay:10.37,2013-05-26 21:49:00,
2013-05-26 16:54:00,83.5,63.5,29.95,SW,225,4.4,12.7,51,0.00,,,0.00,WeatherDisplay:10.37,2013-05-26 21:54:00,
2013-05-26 16:59:00,83.4,62.2,29.95,SW,218,10.3,13.0,49,0.00,,,0.00,WeatherDisplay:10.37,2013-05-26 21:59:00,
2013-05-26 17:04:00,83.7,63.7,29.95,WSW,238,5.6,9.2,51,0.00,,,0.00,WeatherDisplay:10.37,2013-05-26 22:04:00,
2013-05-26 17:09:00,83.9,64.4,29.94,SW,234,4.5,7.0,52,0.00,,,0.00,WeatherDisplay:10.37,2013-05-26 22:09:00,
2013-05-26 17:14:00,83.7,64.8,29.94,SE,146,3.9,5.8,53,0.00,,,0.00,WeatherDisplay:10.37,2013-05-26 22:14:00,
2013-05-26 17:19:00,84.1,64.6,29.95,SW,222,5.8,11.0,52,0.00,,,0.00,WeatherDisplay:10.37,2013-05-26 22:19:00,
2013-05-26 17:24:00,83.6,63.6,29.95,SSW,210,7.6,11.5,51,0.00,,,0.00,WeatherDisplay:10.37,2013-05-26 22:24:00,
2013-05-26 17:29:00,83.7,64.2,29.94,SW,232,4.8,6.9,52,0.00,,,0.00,WeatherDisplay:10.37,2013-05-26 22:29:00,
2013-05-26 17:34:00,83.8,64.8,29.94,SE,145,4.4,6.0,53,0.00,,,0.00,WeatherDisplay:10.37,2013-05-26 22:34:00,
2013-05-26 17:39:00,83.7,64.2,29.94,WSW,238,7.0,12.0,52,0.00,,,0.00,WeatherDisplay:10.37,2013-05-26 22:39:00,
2013-05-26 17:44:00,83.3,63.8,29.94,WSW,243,4.8,5.0,52,0.00,,,0.00,WeatherDisplay:10.37,2013-05-26 22:44:00,
2013-05-26 17:49:00,82.8,63.9,29.94,SW,222,6.6,11.5,53,0.00,,,0.00,WeatherDisplay:10.37,2013-05-26 22:49:00,
2013-05-26 17:54:00,82.7,64.4,29.94,SW,222,5.6,8.0,54,0.00,,,0.00,WeatherDisplay:10.37,2013-05-26 22:54:00,
2013-05-26 17:59:00,82.7,64.9,29.94,South,180,2.3,5.8,55,0.00,,,0.00,WeatherDisplay:10.37,2013-05-26 22:59:00,
2013-05-26 18:04:00,82.6,64.8,29.94,South,174,6.0,10.4,55,0.00,,,0.00,WeatherDisplay:10.37,2013-05-26 23:04:00,
2013-05-26 18:09:00,82.4,64.6,29.93,SW,236,3.4,10.4,55,0.00,,,0.00,WeatherDisplay:10.37,2013-05-26 23:09:00,
2013-05-26 18:14:00,82.0,64.2,29.93,SW,219,5.5,8.1,55,0.00,,,0.00,WeatherDisplay:10.37,2013-05-26 23:14:00,
2013-05-26 18:19:00,81.7,65.0,29.94,SSE,166,2.3,5.8,57,0.00,,,0.00,WeatherDisplay:10.37,2013-05-26 23:19:00,
2013-05-26 18:24:00,81.5,65.3,29.93,SSE,165,4.1,4.6,58,0.00,,,0.00,WeatherDisplay:10.37,2013-05-26 23:24:00,
2013-05-26 18:29:00,81.6,66.4,29.93,SE,141,3.6,5.8,60,0.00,,,0.00,WeatherDisplay:10.37,2013-05-26 23:29:00,
2013-05-26 18:34:00,81.9,66.6,29.93,SE,146,2.8,6.9,60,0.00,,,0.00,WeatherDisplay:10.37,2013-05-26 23:34:00,
2013-05-26 18:39:00,82.2,66.9,29.93,SSW,203,1.4,3.0,60,0.00,,,0.00,WeatherDisplay:10.37,2013-05-26 23:39:00,
2013-05-26 18:44:00,82.1,66.8,29.93,SW,217,2.9,5.8,60,0.00,,,0.00,WeatherDisplay:10.37,2013-05-26 23:44:00,
2013-05-26 18:49:00,82.0,67.2,29.93,SSW,200,4.6,7.0,61,0.00,,,0.00,WeatherDisplay:10.37,2013-05-26 23:49:00,
2013-05-26 18:54:00,81.7,66.9,29.93,SW,215,4.8,10.4,61,0.00,,,0.00,WeatherDisplay:10.37,2013-05-26 23:54:00,
2013-05-26 18:59:00,81.6,67.3,29.93,SW,221,1.4,8.1,62,0.00,,,0.00,WeatherDisplay:10.37,2013-05-26 23:59:00,
2013-05-26 19:04:00,80.9,67.1,29.93,SW,217,2.2,5.8,63,0.00,,,0.00,WeatherDisplay:10.37,2013-05-27 00:04:00,
2013-05-26 19:09:00,80.2,67.4,29.93,South,184,3.7,6.0,65,0.00,CLR,,0.00,WeatherDisplay:10.37,2013-05-27 00:09:00,
2013-05-26 19:14:00,79.7,67.3,29.93,SSW,203,2.8,2.8,66,0.00,CLR,,0.00,WeatherDisplay:10.37,2013-05-27 00:14:00,
2013-05-26 19:19:00,79.3,67.0,29.93,South,183,2.7,10.4,66,0.00,CLR,,0.00,WeatherDisplay:10.37,2013-05-27 00:19:00,
2013-05-26 19:24:00,79.0,67.1,29.93,SW,219,1.9,6.9,67,0.00,CLR,,0.00,WeatherDisplay:10.37,2013-05-27 00:24:00,
2013-05-26 19:29:00,78.7,66.8,29.93,SE,138,2.5,6.9,67,0.00,CLR,,0.00,WeatherDisplay:10.37,2013-05-27 00:29:00,
2013-05-26 19:34:00,78.5,67.1,29.93,ESE,114,2.8,4.6,68,0.00,CLR,,0.00,WeatherDisplay:10.37,2013-05-27 00:34:00,
2013-05-26 19:39:00,78.3,66.9,29.93,SSE,167,1.2,4.6,68,0.00,CLR,,0.00,WeatherDisplay:10.37,2013-05-27 00:39:00,
2013-05-26 19:45:00,78.1,67.1,29.94,South,170,0.1,4.6,69,0.00,CLR,,0.00,WeatherDisplay:10.37,2013-05-27 00:45:00,
2013-05-26 19:50:00,77.8,66.8,29.94,SW,215,0.7,3.5,69,0.00,CLR,,0.00,WeatherDisplay:10.37,2013-05-27 00:50:00,
2013-05-26 19:55:00,77.5,66.9,29.94,SSE,166,0.0,3.5,70,0.00,CLR,,0.00,WeatherDisplay:10.37,2013-05-27 00:55:00,
2013-05-26 20:00:00,77.1,67.0,29.94,SE,144,0.6,2.3,71,0.00,CLR,,0.00,WeatherDisplay:10.37,2013-05-27 01:00:00,
2013-05-26 20:05:00,76.8,66.7,29.94,SSE,157,1.6,4.6,71,0.00,CLR,,0.00,WeatherDisplay:10.37,2013-05-27 01:05:00,
2013-05-26 20:10:00,76.8,66.7,29.94,South,176,2.0,3.5,71,0.00,CLR,,0.00,WeatherDisplay:10.37,2013-05-27 01:10:00,
2013-05-26 20:15:00,76.6,66.5,29.94,SSE,152,2.1,3.5,71,0.00,CLR,,0.00,WeatherDisplay:10.37,2013-05-27 01:15:00,
2013-05-26 20:20:00,76.4,66.3,29.94,SW,228,0.3,2.3,71,0.00,CLR,,0.00,WeatherDisplay:10.37,2013-05-27 01:20:00,
2013-05-26 20:25:00,76.1,66.4,29.94,ESE,114,0.5,2.3,72,0.00,CLR,,0.00,WeatherDisplay:10.37,2013-05-27 01:25:00,
2013-05-26 20:30:00,75.8,66.1,29.94,South,181,0.0,0.0,72,0.00,CLR,,0.00,WeatherDisplay:10.37,2013-05-27 01:30:00,
2013-05-26 20:35:00,75.4,66.1,29.94,ESE,115,0.0,1.1,73,0.00,CLR,,0.00,WeatherDisplay:10.37,2013-05-27 01:35:00,
2013-05-26 20:40:00,75.1,66.2,29.94,SSE,153,0.6,2.3,74,0.00,CLR,,0.00,WeatherDisplay:10.37,2013-05-27 01:40:00,
2013-05-26 20:45:00,74.8,66.3,29.94,ESE,110,0.4,2.3,75,0.00,CLR,,0.00,WeatherDisplay:10.37,2013-05-27 01:45:00,
2013-05-26 20:50:00,74.6,66.5,29.95,SW,215,1.3,3.5,76,0.00,CLR,,0.00,WeatherDisplay:10.37,2013-05-27 01:50:00,
2013-05-26 20:55:00,74.4,66.3,29.94,ESE,111,1.5,3.5,76,0.00,,,0.00,WeatherDisplay:10.37,2013-05-27 01:55:00,
2013-05-26 21:00:00,74.3,66.2,29.94,SSE,156,0.6,2.3,76,0.00,,,0.00,WeatherDisplay:10.37,2013-05-27 02:00:00,
2013-05-26 21:05:00,74.2,66.5,29.94,SSE,157,1.0,4.6,77,0.00,,,0.00,WeatherDisplay:10.37,2013-05-27 02:05:00,
2013-05-26 21:10:00,74.1,66.4,29.94,SW,231,1.5,3.5,77,0.00,,,0.00,WeatherDisplay:10.37,2013-05-27 02:10:00,
2013-05-26 21:15:00,73.9,66.2,29.94,ESE,120,2.1,5.8,77,0.00,,,0.00,WeatherDisplay:10.37,2013-05-27 02:15:00,
2013-05-26 21:20:00,73.8,66.1,29.94,SE,134,3.7,9.2,77,0.00,,,0.00,WeatherDisplay:10.37,2013-05-27 02:20:00,
2013-05-26 21:25:00,73.9,66.2,29.94,SSW,210,1.5,4.0,77,0.00,,,0.00,WeatherDisplay:10.37,2013-05-27 02:25:00,
2013-05-26 21:30:00,73.8,66.1,29.94,SSE,152,4.5,11.5,77,0.00,,,0.00,WeatherDisplay:10.37,2013-05-27 02:30:00,
2013-05-26 21:35:00,73.8,66.1,29.94,SE,145,3.5,4.6,77,0.00,,,0.00,WeatherDisplay:10.37,2013-05-27 02:35:00,
2013-05-26 21:40:00,73.7,66.0,29.95,SE,136,2.0,4.0,77,0.00,,,0.00,WeatherDisplay:10.37,2013-05-27 02:40:00,
2013-05-26 21:45:00,73.5,66.2,29.95,SSE,154,4.5,6.9,78,0.00,,,0.00,WeatherDisplay:10.37,2013-05-27 02:45:00,
2013-05-26 21:50:00,73.5,66.2,29.95,SSE,150,2.5,3.5,78,0.00,,,0.00,WeatherDisplay:10.37,2013-05-27 02:50:00,
2013-05-26 21:55:00,73.3,66.0,29.95,SSW,212,1.6,4.6,78,0.00,,,0.00,WeatherDisplay:10.37,2013-05-27 02:55:00,
2013-05-26 22:00:00,73.2,66.3,29.95,SE,124,0.4,1.1,79,0.00,,,0.00,WeatherDisplay:10.37,2013-05-27 03:00:00,
2013-05-26 22:05:00,73.1,66.2,29.95,SE,128,2.0,3.5,79,0.00,,,0.00,WeatherDisplay:10.37,2013-05-27 03:05:00,
2013-05-26 22:10:00,72.8,65.9,29.95,South,169,1.5,3.5,79,0.00,,,0.00,WeatherDisplay:10.37,2013-05-27 03:10:00,
2013-05-26 22:15:00,72.6,66.1,29.96,SSE,167,0.9,2.3,80,0.00,,,0.00,WeatherDisplay:10.37,2013-05-27 03:15:00,
2013-05-26 22:20:00,72.5,66.0,29.96,SSE,152,2.9,8.1,80,0.00,,,0.00,WeatherDisplay:10.37,2013-05-27 03:20:00,
2013-05-26 22:25:00,72.5,66.0,29.95,SSE,163,1.9,3.5,80,0.00,,,0.00,WeatherDisplay:10.37,2013-05-27 03:25:00,
2013-05-26 22:30:00,72.3,65.8,29.95,South,176,2.6,6.0,80,0.00,,,0.00,WeatherDisplay:10.37,2013-05-27 03:30:00,
2013-05-26 22:35:00,72.2,66.0,29.95,SSW,201,1.7,4.0,81,0.00,,,0.00,WeatherDisplay:10.37,2013-05-27 03:35:00,
2013-05-26 22:40:00,72.0,65.8,29.95,SE,141,1.2,3.5,81,0.00,,,0.00,WeatherDisplay:10.37,2013-05-27 03:40:00,
2013-05-26 22:45:00,71.8,65.7,29.95,South,190,2.2,4.6,81,0.00,,,0.00,WeatherDisplay:10.37,2013-05-27 03:45:00,
2013-05-26 22:50:00,71.7,65.6,29.95,ESE,106,1.4,3.0,81,0.00,,,0.00,WeatherDisplay:10.37,2013-05-27 03:50:00,
2013-05-26 22:55:00,71.5,65.7,29.94,SSE,149,3.3,5.8,82,0.00,,,0.00,WeatherDisplay:10.37,2013-05-27 03:55:00,
2013-05-26 23:00:00,71.3,65.5,29.95,SW,224,1.3,2.3,82,0.00,,,0.00,WeatherDisplay:10.37,2013-05-27 04:00:00,
2013-05-26 23:01:00,71.3,65.5,29.95,SSE,150,2.2,3.0,82,0.00,,,0.00,WeatherDisplay:10.37,2013-05-27 04:01:00,
2013-05-26 23:06:00,71.0,65.2,29.95,SE,145,1.0,3.0,82,0.00,,,0.00,WeatherDisplay:10.37,2013-05-27 04:06:00,
2013-05-26 23:11:00,70.8,65.0,29.95,SSE,162,1.8,4.0,82,0.00,,,0.00,WeatherDisplay:10.37,2013-05-27 04:11:00,
2013-05-26 23:16:00,70.6,64.5,29.95,SSW,208,1.6,3.5,81,0.00,,,0.00,WeatherDisplay:10.37,2013-05-27 04:16:00,
2013-05-26 23:21:00,70.4,64.3,29.95,SSE,165,1.0,3.5,81,0.00,,,0.00,WeatherDisplay:10.37,2013-05-27 04:21:00,
2013-05-26 23:26:00,70.2,64.1,29.95,South,169,2.0,4.6,81,0.00,,,0.00,WeatherDisplay:10.37,2013-05-27 04:26:00,
2013-05-26 23:31:00,70.2,64.1,29.95,SSE,148,1.4,3.5,81,0.00,,,0.00,WeatherDisplay:10.37,2013-05-27 04:31:00,
2013-05-26 23:36:00,70.0,63.9,29.95,SSE,162,1.5,3.5,81,0.00,,,0.00,WeatherDisplay:10.37,2013-05-27 04:36:00,
2013-05-26 23:41:00,69.8,63.7,29.95,SSE,166,2.2,3.5,81,0.00,,,0.00,WeatherDisplay:10.37,2013-05-27 04:41:00,
2013-05-26 23:46:00,69.6,63.5,29.95,SSW,207,0.9,2.3,81,0.00,,,0.00,WeatherDisplay:10.37,2013-05-27 04:46:00,
2013-05-26 23:51:00,69.4,63.7,29.95,SSW,200,1.0,2.3,82,0.00,,,0.00,WeatherDisplay:10.37,2013-05-27 04:51:00,
2013-05-26 23:56:00,69.2,63.5,29.95,SSE,165,0.5,1.1,82,0.00,,,0.00,WeatherDisplay:10.37,2013-05-27 04:56:00,